createdAt,value
2024-01-11T00:00:14.954Z,6.47
2024-01-11T00:02:46.709Z,7.32
2024-01-11T00:05:17.010Z,6.45
2024-01-11T00:07:54.344Z,7.85
2024-01-11T00:10:27.709Z,5.88
2024-01-11T00:12:58.090Z,4.93
2024-01-11T00:15:32.554Z,8.18
2024-01-11T00:18:02.363Z,7.80
2024-01-11T00:20:29.436Z,7.15
2024-01-11T00:23:05.770Z,7.50
2024-01-11T00:25:32.895Z,6.68
2024-01-11T00:28:00.256Z,7.75
2024-01-11T00:30:27.658Z,7.88
2024-01-11T00:32:54.917Z,7.65
2024-01-11T00:35:22.143Z,7.80
2024-01-11T00:37:49.487Z,7.68
2024-01-11T00:40:17.859Z,8.20
2024-01-11T00:42:45.834Z,7.65
2024-01-11T00:45:12.648Z,7.88
2024-01-11T00:47:40.402Z,8.18
2024-01-11T00:50:09.876Z,8.38
2024-01-11T00:52:36.657Z,7.75
2024-01-11T00:55:04.852Z,8.38
2024-01-11T00:57:32.187Z,8.50
2024-01-11T00:59:59.470Z,7.93
2024-01-11T01:02:26.641Z,9.57
2024-01-11T01:04:54.056Z,8.82
2024-01-11T01:07:21.299Z,8.40
2024-01-11T01:09:48.254Z,8.93
2024-01-11T01:12:19.479Z,8.52
2024-01-11T01:14:48.022Z,7.80
2024-01-11T01:17:18.419Z,8.98
2024-01-11T01:19:46.856Z,7.57
2024-01-11T01:22:15.284Z,7.97
2024-01-11T01:24:42.657Z,9.23
2024-01-11T01:27:11.209Z,9.25
2024-01-11T01:29:38.453Z,7.68
2024-01-11T01:32:06.489Z,7.45
2024-01-11T01:34:33.970Z,8.98
2024-01-11T01:37:00.817Z,9.38
2024-01-11T01:39:28.371Z,9.55
2024-01-11T01:41:58.112Z,9.00
2024-01-11T01:44:25.301Z,9.43
2024-01-11T01:46:54.246Z,9.50
2024-01-11T01:49:24.064Z,9.75
2024-01-11T01:51:55.472Z,9.20
2024-01-11T01:54:25.064Z,9.30
2024-01-11T01:56:53.509Z,10.93
2024-01-11T01:59:24.383Z,10.68
2024-01-11T02:01:54.865Z,10.43
2024-01-11T02:04:25.157Z,10.57
2024-01-11T02:07:09.928Z,9.80
2024-01-11T02:09:58.270Z,11.15
2024-01-11T02:12:26.526Z,10.60
2024-01-11T02:14:55.262Z,8.40
2024-01-11T02:17:22.592Z,9.30
2024-01-11T02:19:49.972Z,10.57
2024-01-11T02:22:25.813Z,10.43
2024-01-11T02:24:54.320Z,9.35
2024-01-11T02:27:21.733Z,8.45
2024-01-11T02:29:48.787Z,10.77
2024-01-11T02:32:20.049Z,8.18
2024-01-11T02:34:47.957Z,11.77
2024-01-11T02:37:21.430Z,11.48
2024-01-11T02:39:50.773Z,10.80
2024-01-11T02:42:21.422Z,9.23
2024-01-11T02:44:49.278Z,10.32
2024-01-11T02:47:21.292Z,11.32
2024-01-11T02:49:48.594Z,9.50
2024-01-11T02:52:15.677Z,8.85
2024-01-11T02:54:44.151Z,12.82
2024-01-11T02:57:13.250Z,13.10
2024-01-11T02:59:42.310Z,11.80
2024-01-11T03:02:09.728Z,12.73
2024-01-11T03:04:36.516Z,9.98
2024-01-11T03:07:20.381Z,12.13
2024-01-11T03:09:47.653Z,13.82
2024-01-11T03:12:15.082Z,12.10
2024-01-11T03:14:42.097Z,12.98
2024-01-11T03:17:09.911Z,11.15
2024-01-11T03:19:44.719Z,13.40
2024-01-11T03:22:22.959Z,12.88
2024-01-11T03:25:08.233Z,12.75
2024-01-11T03:27:41.591Z,11.40
2024-01-11T03:30:09.856Z,12.07
2024-01-11T03:32:37.659Z,12.13
2024-01-11T03:35:04.791Z,11.20
2024-01-11T03:37:31.934Z,12.30
2024-01-11T03:39:58.937Z,11.98
2024-01-11T03:42:26.042Z,10.75
2024-01-11T03:44:54.611Z,13.15
2024-01-11T03:47:24.872Z,10.90
2024-01-11T03:49:52.105Z,11.65
2024-01-11T03:52:31.627Z,14.68
2024-01-11T03:54:59.176Z,11.82
2024-01-11T03:57:29.094Z,12.18
2024-01-11T03:59:57.431Z,13.38
2024-01-11T04:02:24.534Z,10.60
2024-01-11T04:04:51.769Z,13.00
2024-01-11T04:07:18.772Z,11.35
2024-01-11T04:09:46.628Z,13.02
2024-01-11T04:14:42.125Z,10.38
2024-01-11T04:17:09.461Z,14.48
2024-01-11T04:19:37.833Z,12.98
2024-01-11T04:22:06.118Z,12.05
2024-01-11T04:24:33.207Z,11.68
2024-01-11T04:27:03.505Z,12.73
2024-01-11T04:29:30.625Z,13.80
2024-01-11T04:31:59.763Z,12.82
2024-01-11T04:34:26.972Z,14.55
2024-01-11T04:36:54.003Z,12.73
2024-01-11T04:39:21.987Z,14.02
2024-01-11T04:44:18.257Z,13.15
2024-01-11T04:46:45.585Z,13.48
2024-01-11T04:49:13.622Z,14.18
2024-01-11T04:51:40.901Z,13.18
2024-01-11T04:54:08.184Z,13.57
2024-01-11T04:56:35.879Z,14.82
2024-01-11T04:59:04.544Z,12.18
2024-01-11T05:01:32.105Z,13.88
2024-01-11T05:03:59.735Z,13.82
2024-01-11T05:06:29.718Z,13.10
2024-01-11T05:08:56.915Z,13.57
2024-01-11T05:11:27.736Z,11.45
2024-01-11T05:13:55.695Z,12.30
2024-01-11T05:16:25.194Z,12.13
2024-01-11T05:18:53.954Z,14.18
2024-01-11T05:21:22.454Z,12.38
2024-01-11T05:23:50.084Z,15.55
2024-01-11T05:26:18.403Z,13.32
2024-01-11T05:28:47.058Z,13.07
2024-01-11T05:31:17.053Z,13.90
2024-01-11T05:33:47.099Z,12.27
2024-01-11T05:36:14.343Z,12.95
2024-01-11T05:38:43.322Z,12.57
2024-01-11T05:46:06.320Z,9.95
2024-01-11T05:48:33.378Z,12.00
2024-01-11T05:51:01.424Z,10.88
2024-01-11T05:53:29.543Z,12.60
2024-01-11T05:55:56.920Z,13.32
2024-01-11T05:58:23.937Z,11.50
2024-01-11T06:00:51.248Z,13.80
2024-01-11T06:03:18.432Z,11.32
2024-01-11T06:05:46.493Z,14.32
2024-01-11T06:08:13.938Z,12.40
2024-01-11T06:10:43.746Z,12.55
2024-01-11T06:13:11.421Z,12.63
2024-01-11T06:15:59.227Z,14.95
2024-01-11T06:18:29.746Z,12.95
2024-01-11T06:20:57.172Z,13.15
2024-01-11T06:23:26.518Z,13.80
2024-01-11T06:25:54.137Z,15.45
2024-01-11T06:28:21.100Z,13.07
2024-01-11T06:31:11.441Z,12.20
2024-01-11T06:33:39.094Z,14.88
2024-01-11T06:36:08.922Z,12.32
2024-01-11T06:38:36.036Z,12.55
2024-01-11T06:41:03.129Z,12.65
2024-01-11T06:43:30.323Z,14.98
2024-01-11T06:45:58.607Z,14.45
2024-01-11T06:48:25.775Z,13.77
2024-01-11T06:50:53.633Z,14.15
2024-01-11T06:53:21.321Z,13.30
2024-01-11T06:55:48.962Z,13.82
2024-01-11T06:58:19.281Z,11.30
2024-01-11T07:00:46.580Z,13.13
2024-01-11T07:03:46.775Z,14.02
2024-01-11T07:06:17.373Z,13.63
2024-01-11T07:08:46.713Z,13.25
2024-01-11T07:12:03.034Z,13.88
2024-01-11T07:14:32.567Z,12.73
2024-01-11T07:17:00.869Z,13.90
2024-01-11T07:19:28.043Z,14.23
2024-01-11T07:21:59.489Z,14.95
2024-01-11T07:24:26.628Z,16.17
2024-01-11T07:27:07.894Z,13.70
2024-01-11T07:29:36.562Z,12.40
2024-01-11T07:32:13.056Z,14.52
2024-01-11T07:34:40.068Z,14.43
2024-01-11T07:37:07.114Z,11.00
2024-01-11T07:39:34.300Z,13.23
2024-01-11T07:42:05.036Z,13.43
2024-01-11T07:44:33.537Z,13.55
2024-01-11T07:47:05.560Z,12.10
2024-01-11T07:49:32.401Z,14.38
2024-01-11T07:51:59.875Z,13.32
2024-01-11T07:54:28.131Z,12.95
2024-01-11T07:57:04.490Z,11.77
2024-01-11T07:59:37.726Z,11.57
2024-01-11T08:02:12.429Z,11.98
2024-01-11T08:04:40.446Z,11.75
2024-01-11T08:07:31.905Z,9.20
2024-01-11T08:10:00.047Z,9.52
2024-01-11T08:12:28.496Z,8.90
2024-01-11T08:15:08.064Z,11.15
2024-01-11T08:17:49.079Z,11.02
2024-01-11T08:20:17.283Z,8.45
2024-01-11T08:22:44.637Z,8.15
2024-01-11T08:25:11.865Z,9.95
2024-01-11T08:27:39.357Z,10.07
2024-01-11T08:30:07.015Z,9.60
2024-01-11T08:32:40.997Z,10.07
2024-01-11T08:35:11.333Z,10.00
2024-01-11T08:37:39.440Z,9.77
2024-01-11T08:40:08.107Z,10.27
2024-01-11T08:42:37.062Z,10.55
2024-01-11T08:45:08.152Z,9.05
2024-01-11T08:47:36.319Z,8.82
2024-01-11T08:50:07.745Z,10.23
2024-01-11T08:52:35.227Z,7.70
2024-01-11T08:55:02.864Z,9.65
2024-01-11T08:57:30.741Z,9.25
2024-01-11T08:59:58.428Z,9.43
2024-01-11T09:02:43.203Z,9.43
2024-01-11T09:05:13.413Z,9.55
2024-01-11T09:07:43.883Z,9.52
2024-01-11T09:10:15.042Z,10.48
2024-01-11T09:12:42.016Z,10.65
2024-01-11T09:15:09.300Z,10.50
2024-01-11T09:17:36.933Z,9.68
2024-01-11T09:20:04.434Z,9.63
2024-01-11T09:22:34.039Z,9.05
2024-01-11T09:25:01.350Z,8.65
2024-01-11T09:27:28.391Z,10.02
2024-01-11T09:29:57.172Z,11.43
2024-01-11T09:32:24.887Z,8.75
2024-01-11T09:34:52.415Z,9.30
2024-01-11T09:37:29.303Z,9.48
2024-01-11T09:39:56.439Z,10.40
2024-01-11T09:42:23.832Z,9.40
2024-01-11T09:44:51.613Z,9.80
2024-01-11T09:47:20.952Z,10.02
2024-01-11T09:49:52.407Z,11.25
2024-01-11T09:52:51.831Z,10.30
2024-01-11T09:55:19.899Z,9.75
2024-01-11T09:57:54.300Z,10.20
2024-01-11T10:00:25.487Z,9.77
2024-01-11T10:02:53.468Z,10.10
2024-01-11T10:05:21.301Z,9.63
2024-01-11T10:07:48.898Z,9.90
2024-01-11T10:10:18.564Z,10.25
2024-01-11T10:12:45.888Z,9.75
2024-01-11T10:15:16.240Z,10.27
2024-01-11T10:18:02.984Z,11.35
2024-01-11T10:20:31.644Z,9.13
2024-01-11T10:25:26.603Z,6.78
2024-01-11T10:27:53.709Z,9.38
2024-01-11T10:30:21.726Z,9.20
2024-01-11T10:32:49.501Z,9.93
2024-01-11T10:35:18.896Z,9.90
2024-01-11T10:37:47.486Z,10.23
2024-01-11T10:40:16.948Z,9.38
2024-01-11T10:42:45.366Z,10.15
2024-01-11T10:45:18.623Z,9.35
2024-01-11T10:48:08.508Z,9.10
2024-01-11T10:50:43.552Z,8.98
2024-01-11T10:53:38.859Z,7.78
2024-01-11T10:56:11.290Z,10.00
2024-01-11T10:58:41.039Z,8.88
2024-01-11T11:01:18.802Z,11.15
2024-01-11T11:03:47.598Z,9.18
2024-01-11T11:06:22.044Z,12.32
2024-01-11T11:08:52.883Z,9.32
2024-01-11T11:11:20.664Z,10.55
2024-01-11T11:14:22.992Z,9.90
2024-01-11T11:16:48.086Z,10.32
2024-01-11T11:19:16.138Z,10.80
2024-01-11T11:21:55.186Z,10.70
2024-01-11T11:24:22.356Z,8.90
2024-01-11T11:26:51.643Z,8.15
2024-01-11T11:29:20.141Z,9.95
2024-01-11T11:31:49.204Z,9.93
2024-01-11T11:34:16.454Z,9.20
2024-01-11T11:36:53.627Z,9.82
2024-01-11T11:39:23.066Z,9.48
2024-01-11T11:42:06.778Z,8.57
2024-01-11T11:44:34.973Z,8.43
2024-01-11T11:47:25.290Z,10.05
2024-01-11T11:50:22.781Z,9.05
2024-01-11T11:52:56.611Z,7.90
2024-01-11T11:55:25.440Z,9.57
2024-01-11T11:57:55.811Z,8.75
2024-01-11T12:00:22.873Z,9.77
2024-01-11T12:02:50.755Z,9.10
2024-01-11T12:05:20.116Z,9.68
2024-01-11T12:07:48.559Z,9.90
2024-01-11T12:10:17.440Z,8.73
2024-01-11T12:12:48.305Z,8.98
2024-01-11T12:15:30.652Z,10.48
2024-01-11T12:18:02.357Z,9.20
2024-01-11T12:20:30.401Z,8.15
2024-01-11T12:22:58.305Z,8.35
2024-01-11T12:25:28.797Z,8.25
2024-01-11T12:27:56.432Z,8.05
2024-01-11T12:30:38.164Z,10.25
2024-01-11T12:33:09.297Z,10.35
2024-01-11T12:35:42.743Z,9.40
2024-01-11T12:38:12.858Z,8.60
2024-01-11T12:40:43.302Z,9.55
2024-01-11T12:43:10.341Z,9.52
2024-01-11T12:45:38.843Z,8.25
2024-01-11T12:48:09.046Z,8.80
2024-01-11T12:50:37.162Z,8.00
2024-01-11T12:53:31.889Z,7.70
2024-01-11T12:56:12.256Z,9.68
2024-01-11T12:58:49.108Z,8.65
2024-01-11T13:02:04.323Z,9.15
2024-01-11T13:04:35.482Z,8.32
2024-01-11T13:07:02.681Z,8.65
2024-01-11T13:09:30.641Z,9.07
2024-01-11T13:12:01.767Z,7.60
2024-01-11T13:14:30.237Z,7.82
2024-01-11T13:17:09.576Z,7.45
2024-01-11T13:19:37.167Z,5.97
2024-01-11T13:22:16.202Z,7.05
2024-01-11T13:24:44.947Z,7.07
2024-01-11T13:27:18.928Z,6.80
2024-01-11T13:29:46.523Z,7.18
2024-01-11T13:32:29.153Z,6.63
2024-01-11T13:35:00.670Z,7.50
2024-01-11T13:40:25.564Z,7.07
2024-01-11T13:42:52.588Z,6.60
2024-01-11T13:45:30.356Z,7.13
2024-01-11T13:47:58.255Z,6.35
2024-01-11T13:50:45.632Z,5.80
2024-01-11T13:53:18.090Z,5.68
2024-01-11T13:55:58.624Z,5.80
2024-01-11T13:58:34.969Z,5.63
2024-01-11T14:01:07.843Z,6.90
2024-01-11T14:03:36.356Z,6.25
2024-01-11T14:06:22.728Z,5.30
2024-01-11T14:08:50.024Z,6.13
2024-01-11T14:12:01.078Z,7.82
2024-01-11T14:14:31.766Z,7.25
2024-01-11T14:17:09.639Z,6.93
2024-01-11T14:19:36.689Z,6.50
2024-01-11T14:22:03.674Z,7.25
2024-01-11T14:24:36.222Z,7.63
2024-01-11T14:27:04.140Z,6.97
2024-01-11T14:32:00.910Z,7.80
2024-01-11T14:34:31.252Z,6.72
2024-01-11T14:37:17.458Z,8.70
2024-01-11T14:39:44.447Z,7.97
2024-01-11T14:42:27.437Z,7.43
2024-01-11T14:44:54.781Z,7.20
2024-01-11T14:47:27.099Z,6.80
2024-01-11T14:49:54.318Z,6.65
2024-01-11T14:52:34.388Z,7.40
2024-01-11T14:55:01.430Z,7.57
2024-01-11T14:57:50.104Z,8.15
2024-01-11T15:00:18.916Z,8.75
2024-01-11T15:02:52.998Z,7.97
2024-01-11T15:05:29.929Z,8.98
2024-01-11T15:07:57.200Z,8.13
2024-01-11T15:10:50.086Z,7.90
2024-01-11T15:13:17.471Z,9.65
2024-01-11T15:15:46.913Z,8.60
2024-01-11T15:18:14.638Z,9.43
2024-01-11T15:21:04.112Z,9.30
2024-01-11T15:23:36.000Z,12.05
2024-01-11T15:26:11.919Z,10.77
2024-01-11T15:28:42.220Z,9.57
2024-01-11T15:31:49.552Z,10.82
2024-01-11T15:34:16.707Z,8.70
2024-01-11T15:36:53.962Z,8.35
2024-01-11T15:39:27.953Z,8.45
2024-01-11T15:44:35.407Z,8.68
2024-01-11T15:47:02.125Z,9.38
2024-01-11T15:49:38.505Z,10.35
2024-01-11T15:52:06.362Z,10.15
2024-01-11T15:54:33.724Z,8.57
2024-01-11T15:57:08.280Z,9.30
2024-01-11T15:59:35.542Z,10.70
2024-01-11T16:02:07.479Z,9.43
2024-01-11T16:09:54.196Z,9.52
2024-01-11T16:12:25.275Z,9.05
2024-01-11T16:14:52.878Z,9.18
2024-01-11T16:17:35.413Z,9.57
2024-01-11T16:20:04.589Z,10.07
2024-01-11T16:22:35.206Z,8.63
2024-01-11T16:25:03.073Z,10.70
2024-01-11T16:27:45.573Z,10.25
2024-01-11T16:33:57.467Z,9.15
2024-01-11T16:36:37.390Z,10.30
2024-01-11T16:39:11.003Z,10.55
2024-01-11T16:42:01.067Z,9.73
2024-01-11T16:44:29.799Z,10.05
2024-01-11T16:47:06.181Z,9.48
2024-01-11T16:49:35.619Z,9.40
2024-01-11T16:52:06.955Z,10.75
2024-01-11T16:54:34.342Z,7.35
2024-01-11T16:57:01.940Z,7.85
2024-01-11T16:59:29.161Z,6.95
2024-01-11T17:01:59.053Z,5.18
2024-01-11T17:04:26.450Z,6.18
2024-01-11T17:06:53.926Z,4.80
2024-01-11T17:09:20.666Z,5.68
2024-01-11T17:14:31.341Z,4.13
2024-01-11T17:16:58.329Z,4.15
2024-01-11T17:19:25.108Z,4.30
2024-01-11T17:21:52.277Z,4.90
2024-01-11T17:24:19.373Z,3.10
2024-01-11T17:26:47.661Z,3.65
2024-01-11T17:29:15.368Z,5.95
2024-01-11T17:31:46.493Z,3.65
2024-01-11T17:34:13.989Z,3.53
2024-01-11T17:37:32.263Z,4.25
2024-01-11T17:39:59.403Z,3.55
2024-01-11T17:42:26.960Z,4.25
2024-01-11T17:44:56.037Z,3.33
2024-01-11T17:47:23.262Z,3.72
2024-01-11T17:49:50.385Z,3.83
2024-01-11T17:52:18.349Z,2.53
2024-01-11T17:54:45.472Z,2.78
2024-01-11T17:57:12.956Z,4.22
2024-01-11T17:59:40.190Z,2.10
2024-01-11T18:02:06.964Z,3.55
2024-01-11T18:04:33.953Z,3.83
2024-01-11T18:07:02.244Z,4.00
2024-01-11T18:09:29.424Z,3.25
2024-01-11T18:11:56.705Z,2.90
2024-01-11T18:14:24.056Z,3.70
2024-01-11T18:16:52.888Z,2.42
2024-01-11T18:19:19.737Z,2.95
2024-01-11T18:21:47.409Z,3.30
2024-01-11T18:24:16.227Z,2.85
2024-01-11T18:26:45.008Z,2.53
2024-01-11T18:29:12.443Z,2.65
2024-01-11T18:32:04.871Z,3.05
2024-01-11T18:34:35.403Z,3.00
2024-01-11T18:37:21.563Z,3.30
2024-01-11T18:39:48.546Z,2.15
2024-01-11T18:42:16.403Z,3.75
2024-01-11T18:44:43.674Z,2.88
2024-01-11T18:47:13.806Z,3.47
2024-01-11T18:49:40.828Z,3.58
2024-01-11T18:52:07.783Z,3.00
2024-01-11T18:54:35.400Z,3.35
2024-01-11T18:57:04.539Z,3.13
2024-01-11T18:59:35.810Z,3.30
2024-01-11T19:02:09.941Z,3.00
2024-01-11T19:04:39.469Z,2.78
2024-01-11T19:07:07.395Z,4.68
2024-01-11T19:09:35.011Z,3.92
2024-01-11T19:12:05.566Z,5.82
2024-01-11T19:14:34.353Z,6.53
2024-01-11T19:17:14.377Z,5.07
2024-01-11T19:19:44.402Z,3.00
2024-01-11T19:22:20.056Z,3.33
2024-01-11T19:24:47.816Z,2.88
2024-01-11T19:27:15.434Z,3.20
2024-01-11T19:29:43.110Z,3.25
2024-01-11T19:32:10.218Z,3.95
2024-01-11T19:34:38.981Z,2.92
2024-01-11T19:37:06.436Z,2.80
2024-01-11T19:39:33.648Z,2.42
2024-01-11T19:42:04.467Z,3.38
2024-01-11T19:44:32.480Z,2.45
2024-01-11T19:47:02.602Z,3.95
2024-01-11T19:49:29.986Z,2.08
2024-01-11T19:51:59.893Z,1.98
2024-01-11T19:54:30.869Z,2.67
2024-01-11T19:56:59.038Z,2.20
2024-01-11T19:59:26.623Z,1.73
2024-01-11T20:01:59.415Z,2.40
2024-01-11T20:04:27.486Z,1.27
2024-01-11T20:06:56.974Z,1.77
2024-01-11T20:09:23.991Z,2.25
2024-01-11T20:11:51.885Z,1.95
2024-01-11T20:14:19.120Z,1.88
2024-01-11T20:16:50.721Z,2.65
2024-01-11T20:19:19.484Z,1.25
2024-01-11T20:21:46.757Z,3.03
2024-01-11T20:24:14.056Z,2.00
2024-01-11T20:26:41.455Z,2.28
2024-01-11T20:29:08.312Z,2.05
2024-01-11T20:31:35.513Z,1.95
2024-01-11T20:34:03.489Z,1.77
2024-01-11T20:36:31.627Z,2.50
2024-01-11T20:38:58.534Z,2.13
2024-01-11T20:41:26.698Z,1.75
2024-01-11T20:43:54.595Z,1.63
2024-01-11T20:46:23.247Z,2.10
2024-01-11T20:48:50.990Z,1.98
2024-01-11T20:51:24.638Z,1.40
2024-01-11T20:53:56.303Z,1.45
2024-01-11T20:56:24.992Z,2.13
2024-01-11T20:58:52.442Z,1.77
2024-01-11T21:01:23.151Z,2.25
2024-01-11T21:03:50.831Z,1.30
2024-01-11T21:06:18.240Z,1.55
2024-01-11T21:08:45.864Z,1.17
2024-01-11T21:11:18.322Z,1.45
2024-01-11T21:13:45.303Z,1.88
2024-01-11T21:16:12.658Z,1.65
2024-01-11T21:18:39.582Z,1.60
2024-01-11T21:21:06.877Z,1.55
2024-01-11T21:23:34.117Z,1.33
2024-01-11T21:26:01.336Z,1.73
2024-01-11T21:28:28.405Z,1.27
2024-01-11T21:30:56.577Z,1.23
2024-01-11T21:33:23.811Z,2.08
2024-01-11T21:35:52.601Z,1.23
2024-01-11T21:38:19.398Z,1.35
2024-01-11T21:40:46.303Z,0.95
2024-01-11T21:43:13.355Z,1.83
2024-01-11T21:45:42.836Z,1.65
2024-01-11T21:48:10.012Z,2.58
2024-01-11T21:50:39.391Z,1.48
2024-01-11T21:53:06.619Z,1.63
2024-01-11T21:55:33.914Z,1.13
2024-01-11T21:58:00.705Z,1.45
2024-01-11T22:00:27.493Z,1.35
2024-01-11T22:02:54.937Z,1.35
2024-01-11T22:05:22.724Z,1.30
2024-01-11T22:07:50.422Z,1.63
2024-01-11T22:10:17.227Z,2.05
2024-01-11T22:12:44.179Z,1.13
2024-01-11T22:15:11.785Z,1.10
2024-01-11T22:17:38.968Z,1.38
2024-01-11T22:20:10.402Z,2.38
2024-01-11T22:22:37.404Z,1.15
2024-01-11T22:25:04.519Z,1.55
2024-01-11T22:27:31.681Z,1.38
2024-01-11T22:29:59.373Z,1.27
2024-01-11T22:32:26.133Z,1.85
2024-01-11T22:34:54.822Z,1.60
2024-01-11T22:37:21.513Z,1.33
2024-01-11T22:39:48.229Z,1.80
2024-01-11T22:42:15.935Z,1.70
2024-01-11T22:44:44.911Z,1.25
2024-01-11T22:47:12.678Z,1.13
2024-01-11T22:49:42.242Z,1.30
2024-01-11T22:52:10.830Z,1.50
2024-01-11T22:54:41.664Z,1.55
2024-01-11T22:57:10.801Z,0.95
2024-01-11T22:59:38.159Z,1.70
2024-01-11T23:02:06.041Z,1.90
2024-01-11T23:04:34.691Z,1.45
2024-01-11T23:07:02.169Z,1.33
2024-01-11T23:09:29.156Z,1.08
2024-01-11T23:11:58.189Z,1.63
2024-01-11T23:14:25.125Z,1.45
2024-01-11T23:16:53.422Z,1.52
2024-01-11T23:19:20.389Z,1.65
2024-01-11T23:21:48.919Z,2.03
2024-01-11T23:26:42.597Z,1.70
2024-01-11T23:29:09.668Z,1.50
2024-01-11T23:31:39.079Z,1.40
2024-01-11T23:34:06.038Z,0.90
2024-01-11T23:36:33.254Z,1.20
2024-01-11T23:39:01.329Z,1.38
2024-01-11T23:41:29.491Z,1.20
2024-01-11T23:43:56.930Z,0.98
2024-01-11T23:46:23.830Z,1.20
2024-01-11T23:48:50.935Z,1.02
2024-01-11T23:51:18.343Z,1.25
2024-01-11T23:53:45.726Z,2.13
2024-01-11T23:56:14.041Z,1.73
2024-01-11T23:58:41.826Z,1.23
